createdAt,value
2022-10-05T00:01:21.664Z,6.72
2022-10-05T00:03:49.759Z,5.72
2022-10-05T00:06:17.721Z,6.03
2022-10-05T00:08:45.487Z,5.13
2022-10-05T00:11:14.676Z,5.17
2022-10-05T00:13:43.846Z,4.55
2022-10-05T00:16:16.800Z,7.15
2022-10-05T00:18:48.398Z,6.40
2022-10-05T00:21:21.998Z,5.70
2022-10-05T00:23:50.387Z,7.80
2022-10-05T00:26:22.618Z,6.10
2022-10-05T00:28:54.618Z,4.57
2022-10-05T00:31:24.804Z,4.43
2022-10-05T00:33:54.853Z,7.63
2022-10-05T00:36:22.563Z,6.15
2022-10-05T00:38:51.089Z,6.13
2022-10-05T00:41:24.726Z,8.73
2022-10-05T00:44:21.319Z,6.10
2022-10-05T00:46:57.802Z,5.88
2022-10-05T00:49:41.753Z,7.88
2022-10-05T00:52:22.061Z,5.60
2022-10-05T00:54:57.418Z,8.18
2022-10-05T00:57:35.547Z,7.87
2022-10-05T01:00:10.007Z,8.10
2022-10-05T01:02:51.042Z,6.70
2022-10-05T01:05:30.873Z,7.63
2022-10-05T01:08:08.459Z,7.53
2022-10-05T01:10:45.855Z,7.67
2022-10-05T01:13:25.494Z,7.63
2022-10-05T01:16:04.158Z,6.05
2022-10-05T01:18:39.719Z,6.10
2022-10-05T01:21:14.516Z,5.63
2022-10-05T01:24:23.930Z,7.47
2022-10-05T01:27:17.385Z,7.55
2022-10-05T01:29:55.561Z,6.13
2022-10-05T01:32:29.848Z,7.78
2022-10-05T01:35:07.014Z,7.88
2022-10-05T01:37:43.046Z,6.97
2022-10-05T01:40:19.376Z,7.78
2022-10-05T01:43:00.146Z,8.30
2022-10-05T01:45:39.473Z,7.97
2022-10-05T01:48:14.259Z,8.50
2022-10-05T01:50:51.237Z,6.70
2022-10-05T01:53:35.924Z,8.63
2022-10-05T01:56:15.445Z,5.85
2022-10-05T01:58:53.094Z,6.15
2022-10-05T02:01:31.860Z,6.88
2022-10-05T02:04:06.937Z,6.85
2022-10-05T02:06:41.537Z,5.75
2022-10-05T02:09:16.220Z,7.32
2022-10-05T02:11:48.331Z,7.88
2022-10-05T02:14:20.282Z,6.50
2022-10-05T02:16:52.375Z,8.23
2022-10-05T02:19:24.620Z,6.13
2022-10-05T02:21:57.294Z,8.07
2022-10-05T02:24:31.121Z,6.47
2022-10-05T02:26:59.887Z,7.57
2022-10-05T02:29:32.905Z,8.10
2022-10-05T02:32:06.523Z,9.32
2022-10-05T02:34:39.190Z,5.53
2022-10-05T02:37:30.903Z,9.18
2022-10-05T02:40:17.258Z,6.63
2022-10-05T02:42:56.751Z,6.30
2022-10-05T02:45:38.513Z,5.22
2022-10-05T02:48:16.126Z,7.23
2022-10-05T02:50:52.579Z,6.85
2022-10-05T02:53:26.716Z,7.88
2022-10-05T02:56:06.257Z,6.00
2022-10-05T02:58:43.041Z,6.85
2022-10-05T03:01:18.038Z,6.65
2022-10-05T03:04:00.154Z,9.30
2022-10-05T03:06:39.059Z,7.97
2022-10-05T03:09:08.743Z,9.63
2022-10-05T03:11:45.478Z,8.67
2022-10-05T03:14:19.920Z,5.88
2022-10-05T03:16:58.129Z,9.10
2022-10-05T03:20:04.043Z,9.02
2022-10-05T03:22:45.202Z,9.18
2022-10-05T03:25:31.650Z,8.55
2022-10-05T03:28:08.135Z,7.68
2022-10-05T03:30:45.192Z,8.33
2022-10-05T03:33:22.737Z,5.50
2022-10-05T03:35:59.829Z,6.30
2022-10-05T03:38:40.389Z,6.82
2022-10-05T03:41:16.363Z,8.27
2022-10-05T03:43:59.105Z,8.27
2022-10-05T03:46:40.014Z,9.10
2022-10-05T03:49:15.746Z,9.90
2022-10-05T03:51:51.233Z,8.10
2022-10-05T03:54:25.848Z,7.20
2022-10-05T03:56:56.795Z,9.32
2022-10-05T03:59:32.596Z,10.25
2022-10-05T04:02:06.477Z,10.23
2022-10-05T04:04:38.422Z,7.22
2022-10-05T04:07:13.013Z,10.85
2022-10-05T04:09:43.961Z,6.80
2022-10-05T04:12:24.423Z,7.80
2022-10-05T04:14:58.456Z,7.60
2022-10-05T04:17:34.227Z,9.90
2022-10-05T04:20:07.093Z,9.73
2022-10-05T04:22:40.317Z,8.25
2022-10-05T04:25:17.794Z,11.30
2022-10-05T04:27:52.027Z,8.15
2022-10-05T04:30:22.142Z,9.27
2022-10-05T04:32:54.869Z,12.43
2022-10-05T04:35:50.041Z,9.80
2022-10-05T04:38:29.677Z,9.20
2022-10-05T04:41:15.892Z,8.20
2022-10-05T04:43:54.796Z,7.57
2022-10-05T04:46:37.609Z,8.48
2022-10-05T04:49:18.523Z,7.85
2022-10-05T04:52:01.029Z,7.88
2022-10-05T04:54:44.525Z,10.23
2022-10-05T04:57:18.015Z,6.80
2022-10-05T05:00:04.651Z,10.35
2022-10-05T05:02:48.867Z,7.33
2022-10-05T05:06:05.003Z,10.73
2022-10-05T05:08:47.160Z,7.88
2022-10-05T05:11:28.042Z,7.60
2022-10-05T05:14:17.351Z,8.90
2022-10-05T05:16:50.536Z,6.75
2022-10-05T05:19:37.422Z,8.25
2022-10-05T05:22:09.462Z,8.18
2022-10-05T05:24:55.685Z,7.50
2022-10-05T05:27:43.189Z,6.30
2022-10-05T05:30:22.262Z,6.67
2022-10-05T05:33:16.998Z,7.22
2022-10-05T05:36:22.872Z,6.70
2022-10-05T05:39:02.583Z,5.50
2022-10-05T05:41:38.027Z,8.75
2022-10-05T05:44:18.161Z,7.40
2022-10-05T05:47:10.012Z,6.38
2022-10-05T05:49:55.234Z,6.78
2022-10-05T05:52:32.068Z,7.97
2022-10-05T05:55:06.028Z,10.52
2022-10-05T05:57:40.039Z,10.60
2022-10-05T06:00:21.592Z,8.73
2022-10-05T06:03:02.899Z,6.50
2022-10-05T06:05:35.258Z,10.85
2022-10-05T06:08:11.871Z,8.68
2022-10-05T06:10:46.414Z,9.30
2022-10-05T06:13:20.524Z,9.98
2022-10-05T06:15:55.162Z,9.52
2022-10-05T06:18:24.080Z,11.93
2022-10-05T06:21:00.829Z,10.65
2022-10-05T06:23:40.868Z,11.00
2022-10-05T06:26:31.934Z,9.53
2022-10-05T06:29:04.048Z,7.32
2022-10-05T06:31:58.890Z,5.70
2022-10-05T06:34:46.344Z,5.70
2022-10-05T06:37:25.990Z,5.35
2022-10-05T06:40:09.224Z,7.03
2022-10-05T06:42:48.354Z,11.00
2022-10-05T06:45:54.841Z,6.88
2022-10-05T06:49:06.527Z,8.73
2022-10-05T06:52:00.080Z,10.40
2022-10-05T06:54:46.803Z,10.40
2022-10-05T06:57:36.652Z,11.40
2022-10-05T07:00:08.110Z,8.73
2022-10-05T07:02:43.999Z,12.48
2022-10-05T07:05:44.021Z,9.55
2022-10-05T07:08:19.917Z,8.82
2022-10-05T07:11:00.334Z,8.35
2022-10-05T07:13:56.861Z,9.68
2022-10-05T07:16:35.813Z,11.75
2022-10-05T07:19:14.735Z,10.40
2022-10-05T07:21:52.478Z,10.20
2022-10-05T07:24:31.536Z,11.02
2022-10-05T07:27:11.207Z,9.85
2022-10-05T07:29:48.466Z,9.00
2022-10-05T07:32:29.047Z,9.80
2022-10-05T07:35:09.935Z,7.13
2022-10-05T07:37:57.266Z,10.20
2022-10-05T07:40:34.369Z,8.32
2022-10-05T07:43:14.852Z,8.38
2022-10-05T07:45:49.101Z,8.40
2022-10-05T07:48:21.829Z,9.52
2022-10-05T07:50:59.780Z,9.15
2022-10-05T07:53:36.889Z,9.07
2022-10-05T07:56:10.671Z,8.18
2022-10-05T07:58:44.172Z,9.05
2022-10-05T08:01:19.250Z,7.20
2022-10-05T08:03:57.967Z,8.05
2022-10-05T08:06:45.272Z,7.20
2022-10-05T08:09:27.165Z,9.07
2022-10-05T08:12:03.557Z,7.55
2022-10-05T08:14:39.761Z,7.13
2022-10-05T08:17:21.681Z,6.50
2022-10-05T08:20:00.226Z,7.65
2022-10-05T08:22:35.684Z,8.32
2022-10-05T08:25:10.284Z,6.90
2022-10-05T08:27:49.143Z,8.23
2022-10-05T08:30:17.497Z,7.47
2022-10-05T08:32:52.298Z,7.90
2022-10-05T08:35:28.048Z,7.15
2022-10-05T08:37:56.982Z,6.80
2022-10-05T08:40:51.582Z,6.53
2022-10-05T08:43:35.965Z,8.77
2022-10-05T08:46:26.844Z,6.88
2022-10-05T08:49:34.905Z,7.13
2022-10-05T08:52:29.038Z,5.47
2022-10-05T08:55:30.498Z,7.50
2022-10-05T08:58:38.456Z,6.82
2022-10-05T09:01:15.636Z,7.35
2022-10-05T09:04:15.811Z,5.85
2022-10-05T09:06:58.424Z,6.20
2022-10-05T09:10:01.547Z,5.72
2022-10-05T09:12:52.948Z,5.70
2022-10-05T09:15:54.170Z,5.70
2022-10-05T09:18:57.070Z,5.25
2022-10-05T09:21:41.809Z,5.90
2022-10-05T09:24:27.044Z,5.72
2022-10-05T09:27:08.760Z,5.82
2022-10-05T09:30:00.913Z,5.20
2022-10-05T09:33:10.362Z,5.40
2022-10-05T09:36:02.867Z,4.80
2022-10-05T09:38:44.656Z,5.35
2022-10-05T09:41:47.838Z,7.17
2022-10-05T09:44:53.914Z,5.27
2022-10-05T09:47:52.139Z,4.88
2022-10-05T09:50:44.894Z,4.80
2022-10-05T09:53:29.914Z,4.73
2022-10-05T09:56:21.198Z,5.10
2022-10-05T09:59:11.775Z,6.07
2022-10-05T10:01:58.703Z,7.47
2022-10-05T10:04:49.781Z,4.35
2022-10-05T10:07:46.489Z,4.70
2022-10-05T10:10:42.145Z,4.60
2022-10-05T10:13:25.615Z,5.27
2022-10-05T10:16:16.341Z,9.65
2022-10-05T10:19:06.257Z,5.55
2022-10-05T10:22:06.382Z,4.50
2022-10-05T10:24:57.617Z,5.53
2022-10-05T10:27:41.961Z,7.85
2022-10-05T10:30:36.471Z,6.55
2022-10-05T10:33:44.890Z,5.40
2022-10-05T10:36:18.836Z,5.80
2022-10-05T10:38:59.388Z,5.78
2022-10-05T10:42:01.975Z,4.10
2022-10-05T10:45:06.407Z,6.13
2022-10-05T10:47:52.840Z,5.83
2022-10-05T10:50:55.871Z,4.85
2022-10-05T10:53:56.101Z,6.55
2022-10-05T10:56:51.822Z,3.70
2022-10-05T10:59:52.436Z,5.13
2022-10-05T11:02:56.799Z,3.58
2022-10-05T11:05:32.634Z,6.32
2022-10-05T11:08:20.503Z,3.22
2022-10-05T11:11:10.782Z,2.80
2022-10-05T11:14:02.570Z,3.00
2022-10-05T11:17:05.077Z,2.45
2022-10-05T11:20:03.580Z,3.63
2022-10-05T11:22:57.203Z,2.90
2022-10-05T11:25:51.654Z,2.33
2022-10-05T11:29:07.052Z,4.55
2022-10-05T11:31:59.873Z,3.92
2022-10-05T11:35:19.754Z,4.03
2022-10-05T11:38:04.721Z,3.70
2022-10-05T11:41:06.398Z,3.22
2022-10-05T11:44:07.882Z,5.00
2022-10-05T11:46:49.212Z,3.30
2022-10-05T11:49:28.918Z,3.88
2022-10-05T11:52:07.143Z,3.80
2022-10-05T11:55:10.986Z,4.47
2022-10-05T11:57:50.421Z,3.73
2022-10-05T12:00:20.843Z,2.90
2022-10-05T12:03:00.750Z,5.47
2022-10-05T12:05:39.091Z,1.63
2022-10-05T12:08:23.107Z,4.07
2022-10-05T12:11:03.463Z,3.13
2022-10-05T12:13:41.076Z,3.38
2022-10-05T12:16:16.772Z,2.60
2022-10-05T12:18:55.987Z,4.20
2022-10-05T12:21:32.728Z,3.03
2022-10-05T12:24:05.860Z,2.15
2022-10-05T12:26:37.759Z,4.13
2022-10-05T12:29:14.192Z,1.90
2022-10-05T12:31:51.460Z,2.55
2022-10-05T12:34:35.718Z,2.53
2022-10-05T12:37:11.187Z,4.20
2022-10-05T12:39:49.436Z,3.33
2022-10-05T12:42:29.655Z,2.70
2022-10-05T12:45:12.501Z,2.00
2022-10-05T12:47:55.227Z,1.70
2022-10-05T12:50:29.463Z,3.20
2022-10-05T12:53:18.770Z,2.50
2022-10-05T12:55:54.463Z,2.50
2022-10-05T12:58:34.192Z,2.97
2022-10-05T13:01:10.175Z,3.43
2022-10-05T13:03:41.049Z,2.53
2022-10-05T13:06:24.129Z,2.57
2022-10-05T13:08:57.392Z,1.98
2022-10-05T13:11:32.433Z,1.83
2022-10-05T13:14:12.438Z,1.40
2022-10-05T13:16:49.204Z,1.63
2022-10-05T13:19:35.411Z,3.47
2022-10-05T13:22:30.702Z,1.80
2022-10-05T13:25:17.296Z,3.45
2022-10-05T13:27:49.547Z,1.23
2022-10-05T13:30:19.893Z,3.00
2022-10-05T13:32:53.434Z,2.80
2022-10-05T13:35:30.661Z,3.13
2022-10-05T13:38:12.140Z,2.40
2022-10-05T13:40:50.560Z,1.67
2022-10-05T13:43:26.957Z,3.33
2022-10-05T13:45:57.385Z,2.83
2022-10-05T13:48:46.388Z,3.28
2022-10-05T13:51:21.551Z,2.33
2022-10-05T13:54:01.959Z,2.08
2022-10-05T13:56:32.002Z,2.80
2022-10-05T13:59:07.823Z,3.22
2022-10-05T14:01:42.758Z,4.05
2022-10-05T14:04:18.061Z,3.97
2022-10-05T14:06:49.376Z,3.17
2022-10-05T14:09:31.256Z,3.13
2022-10-05T14:12:14.895Z,3.15
2022-10-05T14:14:48.808Z,4.55
2022-10-05T14:17:32.813Z,3.93
2022-10-05T14:20:03.357Z,4.50
2022-10-05T14:22:31.170Z,3.95
2022-10-05T14:25:17.085Z,4.70
2022-10-05T14:27:51.871Z,2.92
2022-10-05T14:30:23.536Z,4.30
2022-10-05T14:32:57.068Z,3.67
2022-10-05T14:35:26.538Z,5.22
2022-10-05T14:37:59.649Z,5.10
2022-10-05T14:40:34.053Z,1.93
2022-10-05T14:43:18.439Z,3.37
2022-10-05T14:46:02.611Z,3.67
2022-10-05T14:48:41.806Z,2.45
2022-10-05T14:51:12.220Z,4.82
2022-10-05T14:53:43.261Z,3.00
2022-10-05T14:56:39.245Z,4.13
2022-10-05T14:59:30.390Z,1.90
2022-10-05T15:02:23.147Z,4.20
2022-10-05T15:04:57.513Z,6.60
2022-10-05T15:07:28.363Z,4.10
2022-10-05T15:10:08.394Z,5.82
2022-10-05T15:12:48.428Z,3.20
2022-10-05T15:15:28.223Z,3.13
2022-10-05T15:18:01.230Z,3.25
2022-10-05T15:20:36.932Z,5.40
2022-10-05T15:23:24.479Z,2.78
2022-10-05T15:26:02.749Z,2.72
2022-10-05T15:28:39.071Z,2.40
2022-10-05T15:31:17.449Z,3.78
2022-10-05T15:33:54.635Z,3.72
2022-10-05T15:36:27.751Z,2.70
2022-10-05T15:39:04.959Z,4.00
2022-10-05T15:41:52.819Z,6.90
2022-10-05T15:44:36.551Z,5.37
2022-10-05T15:47:08.390Z,3.20
2022-10-05T15:49:42.951Z,2.60
2022-10-05T15:52:18.816Z,2.80
2022-10-05T15:55:21.114Z,2.92
2022-10-05T15:57:58.706Z,2.38
2022-10-05T16:00:32.173Z,3.90
2022-10-05T16:03:15.975Z,5.35
2022-10-05T16:06:06.421Z,4.57
2022-10-05T16:08:55.058Z,4.87
2022-10-05T16:11:33.697Z,5.57
2022-10-05T16:14:13.924Z,2.78
2022-10-05T16:16:53.201Z,4.07
2022-10-05T16:19:29.495Z,3.10
2022-10-05T16:22:07.545Z,1.97
2022-10-05T16:24:58.291Z,7.63
2022-10-05T16:27:35.243Z,3.20
2022-10-05T16:30:10.570Z,2.95
2022-10-05T16:32:46.742Z,2.72
2022-10-05T16:35:25.426Z,3.20
2022-10-05T16:38:01.689Z,2.50
2022-10-05T16:40:38.801Z,4.28
2022-10-05T16:43:21.612Z,4.70
2022-10-05T16:46:03.751Z,4.18
2022-10-05T16:48:41.278Z,4.65
2022-10-05T16:51:21.393Z,2.75
2022-10-05T16:53:59.941Z,3.90
2022-10-05T16:56:34.187Z,2.92
2022-10-05T16:59:18.465Z,2.60
2022-10-05T17:02:00.676Z,2.60
2022-10-05T17:04:42.197Z,2.28
2022-10-05T17:07:26.302Z,2.50
2022-10-05T17:10:12.119Z,2.80
2022-10-05T17:12:53.133Z,2.43
2022-10-05T17:15:33.162Z,4.00
2022-10-05T17:18:27.304Z,4.70
2022-10-05T17:21:07.765Z,3.78
2022-10-05T17:23:55.117Z,4.53
2022-10-05T17:26:55.518Z,4.00
2022-10-05T17:29:30.108Z,2.88
2022-10-05T17:32:12.789Z,3.88
2022-10-05T17:35:18.188Z,2.78
2022-10-05T17:41:06.349Z,2.75
2022-10-05T17:43:34.942Z,3.85
2022-10-05T17:46:04.095Z,3.95
2022-10-05T17:48:44.115Z,3.93
2022-10-05T17:51:56.423Z,2.83
2022-10-05T17:54:43.335Z,7.07
2022-10-05T17:57:21.026Z,4.93
2022-10-05T17:59:59.265Z,6.87
2022-10-05T18:02:42.717Z,6.90
2022-10-05T18:05:23.168Z,4.80
2022-10-05T18:08:26.837Z,2.80
2022-10-05T18:11:17.004Z,4.68
2022-10-05T18:13:49.943Z,3.55
2022-10-05T18:16:50.816Z,4.07
2022-10-05T18:19:23.870Z,3.38
2022-10-05T18:22:04.411Z,2.20
2022-10-05T18:24:53.137Z,2.90
2022-10-05T18:27:43.212Z,2.58
2022-10-05T18:30:22.496Z,4.38
2022-10-05T18:33:29.872Z,3.60
2022-10-05T18:36:06.935Z,2.33
2022-10-05T18:39:02.359Z,2.15
2022-10-05T18:41:48.137Z,2.15
2022-10-05T18:44:50.189Z,4.78
2022-10-05T18:47:34.606Z,5.28
2022-10-05T18:50:20.919Z,3.08
2022-10-05T18:53:06.756Z,3.80
2022-10-05T18:55:41.475Z,5.75
2022-10-05T18:58:18.012Z,3.22
2022-10-05T19:01:15.035Z,5.55
2022-10-05T19:03:56.625Z,7.22
2022-10-05T19:06:30.956Z,4.32
2022-10-05T19:09:09.940Z,4.53
2022-10-05T19:11:44.423Z,5.28
2022-10-05T19:14:18.620Z,4.90
2022-10-05T19:17:09.333Z,4.85
2022-10-05T19:19:51.982Z,6.40
2022-10-05T19:22:32.945Z,3.88
2022-10-05T19:25:20.487Z,4.35
2022-10-05T19:28:00.428Z,4.10
2022-10-05T19:30:42.435Z,5.32
2022-10-05T19:33:26.988Z,4.00
2022-10-05T19:36:09.215Z,3.77
2022-10-05T19:38:45.845Z,3.83
2022-10-05T19:41:17.149Z,4.00
2022-10-05T19:44:09.088Z,6.15
2022-10-05T19:46:50.861Z,3.47
2022-10-05T19:49:43.485Z,2.47
2022-10-05T19:52:21.009Z,2.35
2022-10-05T19:55:01.769Z,1.87
2022-10-05T19:57:29.687Z,3.72
2022-10-05T19:59:59.489Z,4.07
2022-10-05T20:02:28.887Z,2.40
2022-10-05T20:05:07.302Z,5.43
2022-10-05T20:07:36.970Z,4.80
2022-10-05T20:10:28.191Z,3.70
2022-10-05T20:12:58.064Z,6.82
2022-10-05T20:15:45.434Z,3.67
2022-10-05T20:19:05.774Z,6.57
2022-10-05T20:21:48.770Z,5.22
2022-10-05T20:24:20.287Z,4.75
2022-10-05T20:27:02.151Z,7.27
2022-10-05T20:29:31.300Z,7.30
2022-10-05T20:31:59.803Z,5.40
2022-10-05T20:34:27.701Z,5.60
2022-10-05T20:36:55.583Z,3.00
2022-10-05T20:39:24.756Z,3.72
2022-10-05T20:41:52.480Z,2.90
2022-10-05T20:44:20.264Z,4.13
2022-10-05T20:46:48.102Z,5.50
2022-10-05T20:49:17.935Z,3.87
2022-10-05T20:51:45.929Z,4.60
2022-10-05T20:54:18.057Z,6.95
2022-10-05T20:56:47.200Z,5.80
2022-10-05T20:59:15.456Z,5.45
2022-10-05T21:01:45.313Z,5.10
2022-10-05T21:04:13.053Z,7.60
2022-10-05T21:06:41.084Z,6.43
2022-10-05T21:09:11.230Z,5.97
2022-10-05T21:11:40.046Z,7.10
2022-10-05T21:14:09.406Z,6.53
2022-10-05T21:16:38.047Z,10.50
2022-10-05T21:23:24.497Z,8.15
2022-10-05T21:25:53.045Z,7.53
2022-10-05T21:28:22.070Z,6.38
2022-10-05T21:30:51.320Z,6.97
2022-10-05T21:33:19.151Z,7.53
2022-10-05T21:35:46.920Z,7.97
2022-10-05T21:38:16.811Z,7.47
2022-10-05T21:40:45.498Z,5.47
2022-10-05T21:43:14.244Z,4.45
2022-10-05T21:45:43.412Z,6.53
2022-10-05T21:48:14.000Z,4.77
2022-10-05T21:50:42.263Z,3.85
2022-10-05T21:53:14.107Z,4.80
2022-10-05T21:55:45.172Z,5.35
2022-10-05T21:58:14.905Z,4.80
2022-10-05T22:00:42.971Z,4.75
2022-10-05T22:03:12.127Z,5.32
2022-10-05T22:05:40.102Z,4.35
2022-10-05T22:08:08.100Z,7.95
2022-10-05T22:10:35.976Z,3.93
2022-10-05T22:13:05.275Z,5.43
2022-10-05T22:15:33.212Z,3.60
2022-10-05T22:18:01.092Z,4.30
2022-10-05T22:20:31.864Z,4.80
2022-10-05T22:22:59.731Z,4.93
2022-10-05T22:25:27.559Z,8.13
2022-10-05T22:27:55.440Z,6.50
2022-10-05T22:30:23.273Z,5.30
2022-10-05T22:32:51.129Z,6.05
2022-10-05T22:35:18.961Z,6.20
2022-10-05T22:37:48.067Z,5.15
2022-10-05T22:40:15.865Z,6.07
2022-10-05T22:42:43.668Z,5.80
2022-10-05T22:45:11.561Z,4.10
2022-10-05T22:47:39.369Z,4.20
2022-10-05T22:50:09.081Z,6.45
2022-10-05T22:52:37.175Z,5.97
2022-10-05T22:55:07.430Z,6.82
2022-10-05T22:57:39.048Z,7.55
2022-10-05T23:00:08.620Z,7.20
2022-10-05T23:02:37.462Z,5.20
2022-10-05T23:05:05.964Z,6.50
2022-10-05T23:07:37.587Z,6.95
2022-10-05T23:10:08.986Z,7.13
2022-10-05T23:12:36.886Z,7.85
2022-10-05T23:15:06.017Z,6.38
2022-10-05T23:17:35.753Z,6.53
2022-10-05T23:20:05.288Z,8.65
2022-10-05T23:22:36.889Z,9.33
2022-10-05T23:25:08.084Z,6.18
2022-10-05T23:27:39.784Z,6.55
2022-10-05T23:30:09.904Z,6.57
2022-10-05T23:32:41.967Z,7.15
2022-10-05T23:35:13.667Z,5.00
2022-10-05T23:37:42.472Z,6.35
2022-10-05T23:40:14.664Z,6.90
2022-10-05T23:42:42.974Z,5.22
2022-10-05T23:45:12.845Z,5.55
2022-10-05T23:47:41.602Z,6.00
2022-10-05T23:50:10.605Z,7.43
2022-10-05T23:52:38.622Z,5.47
2022-10-05T23:55:07.397Z,5.97
2022-10-05T23:57:36.624Z,7.60
